Robert, Louisiana
Current Conditions -  °F | °C
As of 12:15 AM on Thursday 23 Oct 2014 (Local Time) from KHDC Reporting Station
Clear Clear  
Wind Chill: 59°   Ceiling: Unl
Heat Index: 59°   Visibility: 10mi
Dew Point: 50°   Wind: 6mph
Humidity: 72%   Direction: 30°NNE
Pressure: 30.1"   Gusts: NA
Location:  30.51°N, 90.34°W
Report Text: KHDC 230515Z AUTO 03005KT 10SM CLR 15/10 A3010 RMK AO2
Loading
Personal Weather Stations






























Interactive Weather Map
Tropical Storm Tracking
New forecast layout! Learn more

10-Day Weather Forecast

Advertisements
Track Severe Weather on mobile